createdAt,value
2023-03-01T00:00:01.142Z,102332.88
2023-03-01T00:00:23.139Z,102331.94
2023-03-01T00:00:47.645Z,102328.34
2023-03-01T00:01:11.690Z,102326.69
2023-03-01T00:01:34.518Z,102334.66
2023-03-01T00:01:58.535Z,102333.78
2023-03-01T00:02:20.593Z,102329.47
2023-03-01T00:02:42.545Z,102338.25
2023-03-01T00:03:05.267Z,102340.88
2023-03-01T00:03:26.887Z,102337.41
2023-03-01T00:03:48.801Z,102333.88
2023-03-01T00:04:11.494Z,102329.47
2023-03-01T00:04:34.713Z,102337.44
2023-03-01T00:04:56.325Z,102339.13
2023-03-01T00:05:18.092Z,102340.91
2023-03-01T00:05:45.434Z,102322.44
2023-03-01T00:06:08.442Z,102334.84
2023-03-01T00:06:30.327Z,102335.66
2023-03-01T00:06:54.519Z,102333.88
2023-03-01T00:07:16.109Z,102340.91
2023-03-01T00:07:38.682Z,102337.38
2023-03-01T00:08:00.300Z,102343.47
2023-03-01T00:08:21.906Z,102347.00
2023-03-01T00:08:43.644Z,102348.75
2023-03-01T00:09:06.550Z,102341.75
2023-03-01T00:09:28.148Z,102346.16
2023-03-01T00:09:51.302Z,102350.50
2023-03-01T00:10:12.904Z,102343.47
2023-03-01T00:10:35.561Z,102346.13
2023-03-01T00:11:05.334Z,102345.22
2023-03-01T00:11:28.532Z,102347.03
2023-03-01T00:11:50.126Z,102345.25
2023-03-01T00:12:12.733Z,102347.03
2023-03-01T00:12:34.335Z,102350.53
2023-03-01T00:12:57.360Z,102349.72
2023-03-01T00:13:18.967Z,102348.78
2023-03-01T00:13:42.670Z,102350.50
2023-03-01T00:14:05.800Z,102351.41
2023-03-01T00:14:28.536Z,102349.63
2023-03-01T00:14:50.151Z,102336.44
2023-03-01T00:15:12.524Z,102332.84
2023-03-01T00:15:36.119Z,102340.75
2023-03-01T00:15:57.909Z,102345.16
2023-03-01T00:16:22.138Z,102348.69
2023-03-01T00:16:45.542Z,102342.53
2023-03-01T00:17:08.228Z,102345.13
2023-03-01T00:17:29.860Z,102340.66
2023-03-01T00:17:51.481Z,102348.63
2023-03-01T00:18:13.116Z,102353.00
2023-03-01T00:18:37.241Z,102344.19
2023-03-01T00:18:59.165Z,102349.50
2023-03-01T00:19:21.190Z,102349.50
2023-03-01T00:19:42.881Z,102349.50
2023-03-01T00:20:08.846Z,102346.81
2023-03-01T00:20:30.822Z,102346.84
2023-03-01T00:20:52.972Z,102349.53
2023-03-01T00:21:15.078Z,102352.19
2023-03-01T00:21:36.850Z,102347.72
2023-03-01T00:22:00.781Z,102349.53
2023-03-01T00:22:22.336Z,102346.84
2023-03-01T00:22:43.915Z,102347.72
2023-03-01T00:23:05.490Z,102349.41
2023-03-01T00:23:27.550Z,102345.91
2023-03-01T00:23:53.222Z,102352.09
2023-03-01T00:24:15.322Z,102346.00
2023-03-01T00:24:36.891Z,102353.00
2023-03-01T00:24:58.521Z,102343.38
2023-03-01T00:25:20.086Z,102341.59
2023-03-01T00:25:43.586Z,102334.53
2023-03-01T00:26:07.976Z,102337.13
2023-03-01T00:26:31.334Z,102341.44
2023-03-01T00:26:56.202Z,102344.03
2023-03-01T00:27:18.736Z,102337.03
2023-03-01T00:27:42.362Z,102344.06
2023-03-01T00:28:03.963Z,102340.50
2023-03-01T00:28:25.943Z,102335.28
2023-03-01T00:28:48.188Z,102338.81
2023-03-01T00:29:11.294Z,102343.22
2023-03-01T00:29:32.887Z,102340.56
2023-03-01T00:29:55.130Z,102340.47
2023-03-01T00:30:17.371Z,102337.88
2023-03-01T00:30:39.049Z,102331.72
2023-03-01T00:31:05.654Z,102334.34
2023-03-01T00:31:30.095Z,102330.72
2023-03-01T00:31:52.995Z,102338.69
2023-03-01T00:32:15.756Z,102330.75
2023-03-01T00:32:37.388Z,102343.97
2023-03-01T00:32:59.162Z,102335.13
2023-03-01T00:33:20.799Z,102336.88
2023-03-01T00:33:46.181Z,102328.00
2023-03-01T00:34:10.019Z,102330.78
2023-03-01T00:34:31.781Z,102332.56
2023-03-01T00:34:56.482Z,102333.44
2023-03-01T00:35:18.225Z,102336.06
2023-03-01T00:35:41.133Z,102330.75
2023-03-01T00:36:06.233Z,102335.13
2023-03-01T00:36:32.009Z,102329.84
2023-03-01T00:36:53.968Z,102342.09
2023-03-01T00:37:16.927Z,102332.50
2023-03-01T00:37:39.524Z,102330.72
2023-03-01T00:38:01.723Z,102338.53
2023-03-01T00:38:23.323Z,102336.75
2023-03-01T00:38:46.570Z,102329.69
2023-03-01T00:39:13.870Z,102332.31
2023-03-01T00:39:35.538Z,102334.94
2023-03-01T00:39:57.243Z,102334.00
2023-03-01T00:40:19.017Z,102340.16
2023-03-01T00:40:41.606Z,102326.97
2023-03-01T00:41:09.487Z,102337.56
2023-03-01T00:41:31.378Z,102333.16
2023-03-01T00:41:52.966Z,102336.66
2023-03-01T00:42:15.820Z,102338.34
2023-03-01T00:42:37.429Z,102328.66
2023-03-01T00:42:59.081Z,102333.09
2023-03-01T00:43:21.069Z,102326.94
2023-03-01T00:43:43.288Z,102313.53
2023-03-01T00:44:06.090Z,102333.06
2023-03-01T00:44:29.191Z,102340.19
2023-03-01T00:44:50.849Z,102323.44
2023-03-01T00:45:14.122Z,102326.06
2023-03-01T00:45:39.017Z,102338.34
2023-03-01T00:46:02.113Z,102333.19
2023-03-01T00:46:25.735Z,102329.59
2023-03-01T00:46:47.368Z,102326.16
2023-03-01T00:47:10.130Z,102334.97
2023-03-01T00:47:31.786Z,102335.03
2023-03-01T00:47:53.939Z,102333.19
2023-03-01T00:48:15.526Z,102334.91
2023-03-01T00:48:40.586Z,102334.91
2023-03-01T00:49:03.098Z,102330.56
2023-03-01T00:49:28.472Z,102334.13
2023-03-01T00:49:51.700Z,102338.53
2023-03-01T00:50:14.261Z,102335.91
2023-03-01T00:50:36.094Z,102334.94
2023-03-01T00:50:57.696Z,102334.00
2023-03-01T00:51:21.864Z,102337.56
2023-03-01T00:51:44.466Z,102325.19
2023-03-01T00:52:06.272Z,102334.94
2023-03-01T00:52:29.363Z,102334.94
2023-03-01T00:52:53.963Z,102332.31
2023-03-01T00:53:15.556Z,102330.50
2023-03-01T00:53:38.630Z,102329.59
2023-03-01T00:54:02.568Z,102335.78
2023-03-01T00:54:24.570Z,102329.59
2023-03-01T00:54:47.213Z,102301.22
2023-03-01T00:55:10.311Z,102336.59
2023-03-01T00:55:31.945Z,102332.22
2023-03-01T00:55:53.534Z,102320.88
2023-03-01T00:56:15.828Z,102325.34
2023-03-01T00:56:39.377Z,102330.59
2023-03-01T00:57:01.021Z,102328.81
2023-03-01T00:57:22.717Z,102327.84
2023-03-01T00:57:44.412Z,102329.69
2023-03-01T00:58:07.128Z,102327.84
2023-03-01T00:58:29.087Z,102332.22
2023-03-01T00:58:50.915Z,102326.13
2023-03-01T00:59:12.503Z,102329.63
2023-03-01T00:59:35.892Z,102327.81
2023-03-01T00:59:57.655Z,102324.44
2023-03-01T01:00:21.694Z,102326.97
2023-03-01T01:00:44.107Z,102331.41
2023-03-01T01:01:17.972Z,102319.09
2023-03-01T01:01:40.901Z,102323.44
2023-03-01T01:02:03.048Z,102322.66
2023-03-01T01:02:26.196Z,102329.63
2023-03-01T01:02:48.329Z,102322.63
2023-03-01T01:03:11.110Z,102316.44
2023-03-01T01:03:32.736Z,102325.25
2023-03-01T01:03:56.689Z,102314.63
2023-03-01T01:04:18.299Z,102333.25
2023-03-01T01:04:40.872Z,102334.09
2023-03-01T01:05:02.510Z,102329.72
2023-03-01T01:05:24.133Z,102324.44
2023-03-01T01:05:45.993Z,102329.69
2023-03-01T01:06:15.650Z,102326.16
2023-03-01T01:06:39.439Z,102328.78
2023-03-01T01:07:01.045Z,102322.69
2023-03-01T01:07:22.693Z,102328.75
2023-03-01T01:07:46.633Z,102324.41
2023-03-01T01:08:08.315Z,102325.25
2023-03-01T01:08:30.006Z,102332.31
2023-03-01T01:08:53.263Z,102320.88
2023-03-01T01:09:18.886Z,102325.31
2023-03-01T01:09:40.905Z,102330.56
2023-03-01T01:10:03.204Z,102327.03
2023-03-01T01:10:24.824Z,102315.59
2023-03-01T01:10:48.048Z,102319.91
2023-03-01T01:11:10.338Z,102320.84
2023-03-01T01:11:33.325Z,102326.09
2023-03-01T01:11:55.150Z,102326.09
2023-03-01T01:12:16.810Z,102322.56
2023-03-01T01:12:38.507Z,102318.19
2023-03-01T01:13:00.154Z,102318.19
2023-03-01T01:13:22.710Z,102311.22
2023-03-01T01:13:45.677Z,102314.78
2023-03-01T01:14:07.293Z,102319.19
2023-03-01T01:14:29.921Z,102311.25
2023-03-01T01:14:51.581Z,102313.06
2023-03-01T01:15:15.150Z,102310.44
2023-03-01T01:15:37.160Z,102306.91
2023-03-01T01:16:01.798Z,102310.44
2023-03-01T01:16:27.038Z,102311.28
2023-03-01T01:16:49.462Z,102302.47
2023-03-01T01:17:11.509Z,102304.22
2023-03-01T01:17:33.685Z,102306.84
2023-03-01T01:17:56.666Z,102304.25
2023-03-01T01:18:18.304Z,102301.56
2023-03-01T01:18:40.195Z,102305.03
2023-03-01T01:19:03.555Z,102303.25
2023-03-01T01:19:27.357Z,102296.16
2023-03-01T01:19:50.390Z,102295.31
2023-03-01T01:20:12.920Z,102303.22
2023-03-01T01:20:36.581Z,102301.47
2023-03-01T01:20:58.381Z,102291.78
2023-03-01T01:21:23.693Z,102297.06
2023-03-01T01:21:45.996Z,102304.06
2023-03-01T01:22:07.692Z,102298.84
2023-03-01T01:22:29.323Z,102295.31
2023-03-01T01:22:52.343Z,102297.94
2023-03-01T01:23:15.014Z,102293.53
2023-03-01T01:23:37.620Z,102292.72
2023-03-01T01:24:00.065Z,102304.13
2023-03-01T01:24:21.818Z,102293.56
2023-03-01T01:24:46.032Z,102299.75
2023-03-01T01:25:08.362Z,102298.03
2023-03-01T01:25:30.003Z,102297.13
2023-03-01T01:25:51.605Z,102292.75
2023-03-01T01:26:15.115Z,102296.31
2023-03-01T01:26:37.659Z,102290.19
2023-03-01T01:27:00.064Z,102293.72
2023-03-01T01:27:23.124Z,102274.22
2023-03-01T01:27:44.839Z,102291.06
2023-03-01T01:28:07.402Z,102302.47
2023-03-01T01:28:29.057Z,102289.31
2023-03-01T01:28:52.798Z,102293.72
2023-03-01T01:29:14.533Z,102295.47
2023-03-01T01:29:37.595Z,102294.66
2023-03-01T01:30:26.449Z,102285.88
2023-03-01T01:30:48.120Z,102275.16
2023-03-01T01:31:09.783Z,102294.69
2023-03-01T01:31:33.780Z,102294.69
2023-03-01T01:31:55.449Z,102294.69
2023-03-01T01:32:17.124Z,102289.38
2023-03-01T01:32:38.945Z,102292.88
2023-03-01T01:33:01.574Z,102291.09
2023-03-01T01:33:23.216Z,102298.13
2023-03-01T01:33:45.368Z,102290.16
2023-03-01T01:34:08.513Z,102285.81
2023-03-01T01:34:31.042Z,102292.91
2023-03-01T01:34:53.058Z,102293.84
2023-03-01T01:35:15.853Z,102291.16
2023-03-01T01:35:37.443Z,102287.66
2023-03-01T01:35:59.039Z,102293.78
2023-03-01T01:36:22.136Z,102290.28
2023-03-01T01:36:43.781Z,102295.53
2023-03-01T01:37:08.750Z,102288.53
2023-03-01T01:37:32.081Z,102288.53
2023-03-01T01:37:56.077Z,102285.00
2023-03-01T01:38:17.747Z,102286.78
2023-03-01T01:38:40.102Z,102287.66
2023-03-01T01:39:02.533Z,102283.28
2023-03-01T01:39:25.404Z,102269.91
2023-03-01T01:39:47.076Z,102280.63
2023-03-01T01:40:12.716Z,102276.06
2023-03-01T01:40:34.312Z,102284.00
2023-03-01T01:40:56.105Z,102275.25
2023-03-01T01:41:20.024Z,102278.78
2023-03-01T01:41:43.131Z,102284.97
2023-03-01T01:42:05.005Z,102280.56
2023-03-01T01:42:29.479Z,102276.06
2023-03-01T01:42:52.531Z,102277.81
2023-03-01T01:43:20.176Z,102279.59
2023-03-01T01:43:44.968Z,102275.19
2023-03-01T01:44:13.616Z,102274.38
2023-03-01T01:44:36.411Z,102274.38
2023-03-01T01:45:32.849Z,102278.72
2023-03-01T01:45:57.817Z,102275.19
2023-03-01T01:46:30.456Z,102272.56
2023-03-01T01:46:56.498Z,102276.06
2023-03-01T01:47:23.306Z,102269.97
2023-03-01T01:47:49.481Z,102272.53
2023-03-01T01:48:16.229Z,102258.31
2023-03-01T01:48:42.286Z,102270.75
2023-03-01T01:49:10.551Z,102266.38
2023-03-01T01:49:37.509Z,102268.09
2023-03-01T01:49:59.136Z,102268.06
2023-03-01T01:50:21.027Z,102263.63
2023-03-01T01:50:42.768Z,102263.63
2023-03-01T01:51:04.990Z,102268.06
2023-03-01T01:51:39.242Z,102262.81
2023-03-01T01:52:07.082Z,102257.50
2023-03-01T01:52:32.501Z,102264.56
2023-03-01T01:52:56.701Z,102260.13
2023-03-01T01:53:20.821Z,102266.31
2023-03-01T01:53:45.337Z,102263.72
2023-03-01T01:54:11.974Z,102262.00
2023-03-01T01:54:42.641Z,102260.22
2023-03-01T01:55:07.880Z,102262.81
2023-03-01T01:55:29.716Z,102255.81
2023-03-01T01:55:58.040Z,102254.88
2023-03-01T01:56:22.659Z,102263.69
2023-03-01T01:56:51.612Z,102260.19
2023-03-01T01:57:17.186Z,102252.25
2023-03-01T01:57:41.740Z,102261.91
2023-03-01T01:58:08.038Z,102254.00
2023-03-01T01:58:33.433Z,102261.94
2023-03-01T01:58:56.532Z,102262.78
2023-03-01T01:59:18.155Z,102257.50
2023-03-01T01:59:41.388Z,102266.25
2023-03-01T02:00:06.377Z,102260.94
2023-03-01T02:00:36.329Z,102260.88
2023-03-01T02:00:57.979Z,102256.53
2023-03-01T02:01:20.507Z,102251.28
2023-03-01T02:01:43.617Z,102251.34
2023-03-01T02:02:06.157Z,102251.31
2023-03-01T02:02:29.152Z,102253.94
2023-03-01T02:02:55.841Z,102253.03
2023-03-01T02:03:21.790Z,102251.28
2023-03-01T02:03:47.523Z,102258.28
2023-03-01T02:04:10.271Z,102251.28
2023-03-01T02:04:33.172Z,102257.44
2023-03-01T02:05:04.562Z,102250.38
2023-03-01T02:05:33.866Z,102252.13
2023-03-01T02:06:02.658Z,102253.06
2023-03-01T02:06:32.435Z,102249.50
2023-03-01T02:07:02.266Z,102250.34
2023-03-01T02:07:26.451Z,102246.78
2023-03-01T02:07:49.585Z,102241.50
2023-03-01T02:08:17.864Z,102252.06
2023-03-01T02:08:43.114Z,102257.34
2023-03-01T02:09:09.923Z,102251.25
2023-03-01T02:09:33.234Z,102244.16
2023-03-01T02:09:57.133Z,102246.78
2023-03-01T02:10:18.923Z,102250.31
2023-03-01T02:10:41.627Z,102244.16
2023-03-01T02:11:06.017Z,102251.19
2023-03-01T02:11:30.416Z,102255.56
2023-03-01T02:11:53.111Z,102240.56
2023-03-01T02:12:16.078Z,102246.78
2023-03-01T02:12:40.618Z,102233.56
2023-03-01T02:13:03.658Z,102250.31
2023-03-01T02:13:28.073Z,102248.53
2023-03-01T02:13:51.157Z,102250.31
2023-03-01T02:14:12.730Z,102247.63
2023-03-01T02:14:35.472Z,102239.66
2023-03-01T02:14:57.115Z,102243.19
2023-03-01T02:15:21.077Z,102236.13
2023-03-01T02:15:44.987Z,102247.59
2023-03-01T02:16:11.316Z,102244.94
2023-03-01T02:16:34.094Z,102241.41
2023-03-01T02:16:56.443Z,102241.41
2023-03-01T02:17:19.290Z,102244.97
2023-03-01T02:17:43.176Z,102244.16
2023-03-01T02:18:06.119Z,102243.31
2023-03-01T02:18:28.063Z,102249.44
2023-03-01T02:18:51.504Z,102245.06
2023-03-01T02:19:28.540Z,102245.97
2023-03-01T02:20:07.783Z,102243.34
2023-03-01T02:20:36.657Z,102243.31
2023-03-01T02:21:22.796Z,102241.53
2023-03-01T02:21:56.436Z,102243.31
2023-03-01T02:22:23.850Z,102243.22
2023-03-01T02:22:47.423Z,102229.97
2023-03-01T02:23:10.428Z,102239.72
2023-03-01T02:23:34.764Z,102242.41
2023-03-01T02:23:57.448Z,102245.88
2023-03-01T02:24:27.766Z,102242.34
2023-03-01T02:25:03.195Z,102247.59
2023-03-01T02:25:33.284Z,102239.66
2023-03-01T02:26:02.228Z,102245.88
2023-03-01T02:26:30.025Z,102215.78
2023-03-01T02:26:55.836Z,102244.97
2023-03-01T02:27:23.098Z,102237.00
2023-03-01T02:27:51.886Z,102242.34
2023-03-01T02:28:26.885Z,102242.34
2023-03-01T02:28:49.492Z,102244.91
2023-03-01T02:29:12.497Z,102237.00
2023-03-01T02:29:35.974Z,102239.59
2023-03-01T02:29:57.884Z,102251.91
2023-03-01T02:30:22.558Z,102241.38
2023-03-01T02:31:02.732Z,102219.16
2023-03-01T02:31:51.226Z,102247.41
2023-03-01T02:32:14.504Z,102242.06
2023-03-01T02:32:36.746Z,102232.34
2023-03-01T02:33:04.069Z,102245.66
2023-03-01T02:33:27.029Z,102246.47
2023-03-01T02:33:50.169Z,102235.00
2023-03-01T02:34:14.789Z,102245.53
2023-03-01T02:34:37.727Z,102249.97
2023-03-01T02:35:00.703Z,102226.97
2023-03-01T02:35:22.557Z,102239.47
2023-03-01T02:35:44.256Z,102236.84
2023-03-01T02:36:09.106Z,102240.41
2023-03-01T02:36:36.879Z,102244.72
2023-03-01T02:37:05.501Z,102241.22
2023-03-01T02:37:28.286Z,102241.25
2023-03-01T02:37:51.629Z,102239.50
2023-03-01T02:38:13.362Z,102245.63
2023-03-01T02:38:34.947Z,102243.00
2023-03-01T02:38:59.495Z,102234.13
2023-03-01T02:39:25.129Z,102248.22
2023-03-01T02:39:53.055Z,102251.66
2023-03-01T02:40:18.695Z,102242.88
2023-03-01T02:40:41.826Z,102248.09
2023-03-01T02:41:06.804Z,102254.22
2023-03-01T02:41:32.730Z,102252.47
2023-03-01T02:41:57.615Z,102251.56
2023-03-01T02:42:27.125Z,102244.41
2023-03-01T02:42:53.713Z,102251.50
2023-03-01T02:43:16.138Z,102253.28
2023-03-01T02:43:39.501Z,102250.56
2023-03-01T02:44:01.338Z,102254.97
2023-03-01T02:44:25.448Z,102251.38
2023-03-01T02:44:47.118Z,102249.63
2023-03-01T02:45:09.517Z,102252.25
2023-03-01T02:45:31.391Z,102250.50
2023-03-01T02:45:54.391Z,102250.44
2023-03-01T02:46:19.382Z,102218.47
2023-03-01T02:46:45.837Z,102251.28
2023-03-01T02:47:07.796Z,102247.84
2023-03-01T02:47:33.031Z,102246.06
2023-03-01T02:47:55.773Z,102249.69
2023-03-01T02:48:17.603Z,102253.19
2023-03-01T02:48:43.173Z,102252.34
2023-03-01T02:49:22.232Z,102245.38
2023-03-01T02:49:43.929Z,102240.13
2023-03-01T02:50:16.782Z,102234.78
2023-03-01T02:50:55.047Z,102244.41
2023-03-01T02:51:35.315Z,102229.41
2023-03-01T02:52:12.400Z,102236.59
2023-03-01T02:52:51.123Z,102233.94
2023-03-01T02:53:16.611Z,102240.16
2023-03-01T02:53:49.076Z,102237.56
2023-03-01T02:54:22.333Z,102245.50
2023-03-01T02:54:52.614Z,102245.47
2023-03-01T02:55:17.341Z,102238.50
2023-03-01T02:55:42.037Z,102241.06
2023-03-01T02:56:05.747Z,102234.88
2023-03-01T02:56:29.150Z,102235.75
2023-03-01T02:56:51.915Z,102235.75
2023-03-01T02:57:16.618Z,102239.22
2023-03-01T02:57:41.455Z,102237.41
2023-03-01T02:58:05.372Z,102232.06
2023-03-01T02:58:28.743Z,102232.97
2023-03-01T02:58:53.057Z,102232.97
2023-03-01T02:59:16.557Z,102230.25
2023-03-01T02:59:41.560Z,102234.69
2023-03-01T03:00:09.138Z,102234.66
2023-03-01T03:00:36.629Z,102235.50
2023-03-01T03:01:01.806Z,102236.41
2023-03-01T03:01:24.146Z,102232.88
2023-03-01T03:01:47.380Z,102240.78
2023-03-01T03:02:21.208Z,102235.50
2023-03-01T03:02:42.804Z,102235.47
2023-03-01T03:03:11.514Z,102229.31
2023-03-01T03:03:33.285Z,102232.84
2023-03-01T03:03:55.950Z,102233.72
2023-03-01T03:04:21.845Z,102231.13
2023-03-01T03:04:44.727Z,102232.03
2023-03-01T03:05:09.895Z,102229.41
2023-03-01T03:05:33.195Z,102233.81
2023-03-01T03:05:54.966Z,102233.72
2023-03-01T03:06:16.662Z,102233.72
2023-03-01T03:06:38.920Z,102223.00
2023-03-01T03:07:00.602Z,102231.06
2023-03-01T03:07:23.222Z,102230.13
2023-03-01T03:07:47.095Z,102225.81
2023-03-01T03:08:08.820Z,102233.69
2023-03-01T03:08:31.945Z,102237.16
2023-03-01T03:08:54.595Z,102232.84
2023-03-01T03:09:18.276Z,102230.22
2023-03-01T03:09:40.849Z,102232.84
2023-03-01T03:10:02.678Z,102223.16
2023-03-01T03:10:26.225Z,102232.84
2023-03-01T03:10:48.864Z,102222.28
2023-03-01T03:11:10.427Z,102220.44
2023-03-01T03:11:33.300Z,102217.75
2023-03-01T03:11:54.935Z,102219.53
2023-03-01T03:12:18.349Z,102222.13
2023-03-01T03:12:40.181Z,102226.56
2023-03-01T03:13:04.814Z,102226.56
2023-03-01T03:13:29.281Z,102224.81
2023-03-01T03:13:53.328Z,102218.59
2023-03-01T03:14:16.892Z,102219.44
2023-03-01T03:14:42.825Z,102224.72
2023-03-01T03:15:09.638Z,102215.09
2023-03-01T03:15:31.456Z,102210.59
2023-03-01T03:15:54.063Z,102213.34
2023-03-01T03:16:16.087Z,102220.34
2023-03-01T03:16:38.214Z,102215.09
2023-03-01T03:16:59.829Z,102215.03
2023-03-01T03:17:21.810Z,102222.97
2023-03-01T03:17:46.234Z,102217.66
2023-03-01T03:18:10.535Z,102222.97
2023-03-01T03:18:32.626Z,102218.59
2023-03-01T03:18:54.223Z,102222.88
2023-03-01T03:19:17.535Z,102208.69
2023-03-01T03:19:40.099Z,102206.94
2023-03-01T03:20:01.871Z,102214.09
2023-03-01T03:20:26.886Z,102219.38
2023-03-01T03:20:53.675Z,102187.53
2023-03-01T03:21:17.253Z,102214.09
2023-03-01T03:21:39.134Z,102213.22
2023-03-01T03:22:00.746Z,102208.84
2023-03-01T03:22:23.680Z,102218.47
2023-03-01T03:22:46.331Z,102220.25
2023-03-01T03:23:09.007Z,102207.91
2023-03-01T03:23:31.049Z,102204.44
2023-03-01T03:23:52.674Z,102201.66
2023-03-01T03:24:14.286Z,102211.38
2023-03-01T03:24:39.075Z,102205.25
2023-03-01T03:25:02.070Z,102213.13
2023-03-01T03:25:24.181Z,102202.63
2023-03-01T03:25:49.503Z,102201.66
2023-03-01T03:26:14.293Z,102211.41
2023-03-01T03:26:36.977Z,102214.06
2023-03-01T03:26:58.850Z,102211.44
2023-03-01T03:27:20.757Z,102198.16
2023-03-01T03:27:45.103Z,102205.34
2023-03-01T03:28:10.422Z,102198.16
2023-03-01T03:28:33.774Z,102207.06
2023-03-01T03:29:00.359Z,102208.84
2023-03-01T03:29:21.957Z,102206.13
2023-03-01T03:29:43.542Z,102204.41
2023-03-01T03:30:09.871Z,102207.88
2023-03-01T03:30:33.547Z,102207.03
2023-03-01T03:30:55.180Z,102207.88
2023-03-01T03:31:17.083Z,102208.72
2023-03-01T03:31:38.736Z,102169.84
2023-03-01T03:32:00.972Z,102203.47
2023-03-01T03:32:23.656Z,102207.88
2023-03-01T03:32:53.979Z,102206.13
2023-03-01T03:33:15.565Z,102189.31
2023-03-01T03:33:37.646Z,102210.56
2023-03-01T03:34:00.848Z,102209.66
2023-03-01T03:34:22.548Z,102206.13
2023-03-01T03:34:44.208Z,102212.28
2023-03-01T03:35:10.297Z,102208.72
2023-03-01T03:35:33.793Z,102207.84
2023-03-01T03:35:56.456Z,102209.53
2023-03-01T03:36:19.277Z,102215.72
2023-03-01T03:36:40.855Z,102200.78
2023-03-01T03:37:02.401Z,102216.69
2023-03-01T03:37:42.445Z,102207.03
2023-03-01T03:38:16.263Z,102211.47
2023-03-01T03:38:37.800Z,102212.38
2023-03-01T03:38:59.342Z,102215.00
2023-03-01T03:39:22.149Z,102207.06
2023-03-01T03:39:43.778Z,102207.06
2023-03-01T03:40:16.178Z,102194.59
2023-03-01T03:40:39.309Z,102203.59
2023-03-01T03:41:04.785Z,102219.41
2023-03-01T03:41:26.445Z,102217.72
2023-03-01T03:41:48.045Z,102218.59
2023-03-01T03:42:11.041Z,102209.81
2023-03-01T03:42:33.638Z,102220.34
2023-03-01T03:42:55.677Z,102217.72
2023-03-01T03:43:19.980Z,102219.44
2023-03-01T03:43:43.632Z,102219.41
2023-03-01T03:44:07.599Z,102223.72
2023-03-01T03:44:29.178Z,102211.47
2023-03-01T03:44:50.739Z,102220.25
2023-03-01T03:45:12.414Z,102219.41
2023-03-01T03:45:34.571Z,102221.09
2023-03-01T03:45:58.034Z,102223.72
2023-03-01T03:46:19.811Z,102218.47
2023-03-01T03:46:41.401Z,102215.84
2023-03-01T03:47:03.023Z,102218.47
2023-03-01T03:47:24.636Z,102214.16
2023-03-01T03:47:46.281Z,102219.41
2023-03-01T03:48:11.214Z,102215.97
2023-03-01T03:48:34.739Z,102212.28
2023-03-01T03:48:56.337Z,102221.19
2023-03-01T03:49:19.184Z,102215.94
2023-03-01T03:49:40.814Z,102220.28
2023-03-01T03:50:02.397Z,102215.03
2023-03-01T03:50:24.073Z,102214.16
2023-03-01T03:50:50.369Z,102217.63
2023-03-01T03:51:14.068Z,102202.63
2023-03-01T03:51:35.902Z,102206.16
2023-03-01T03:51:58.008Z,102210.56
2023-03-01T03:52:19.579Z,102210.56
2023-03-01T03:52:41.466Z,102205.34
2023-03-01T03:53:06.171Z,102213.22
2023-03-01T03:53:38.600Z,102201.78
2023-03-01T03:54:00.193Z,102203.63
2023-03-01T03:54:25.058Z,102201.88
2023-03-01T03:54:46.619Z,102198.34
2023-03-01T03:55:11.726Z,102199.19
2023-03-01T03:55:34.795Z,102197.41
2023-03-01T03:55:57.991Z,102200.03
2023-03-01T03:56:19.581Z,102200.03
2023-03-01T03:56:41.166Z,102197.38
2023-03-01T03:57:02.777Z,102199.13
2023-03-01T03:57:24.638Z,102204.34
2023-03-01T03:57:52.182Z,102196.47
2023-03-01T03:58:13.765Z,102199.06
2023-03-01T03:58:35.646Z,102200.88
2023-03-01T03:58:58.168Z,102203.50
2023-03-01T03:59:21.092Z,102189.34
2023-03-01T03:59:42.714Z,102197.31
2023-03-01T04:00:06.294Z,102193.88
2023-03-01T04:00:35.328Z,102200.00
2023-03-01T04:00:59.039Z,102204.34
2023-03-01T04:01:20.863Z,102202.56
2023-03-01T04:01:44.996Z,102200.88
2023-03-01T04:02:08.932Z,102189.41
2023-03-01T04:02:31.666Z,102201.81
2023-03-01T04:02:57.297Z,102201.81
2023-03-01T04:03:21.175Z,102205.34
2023-03-01T04:03:47.431Z,102205.41
2023-03-01T04:04:09.011Z,102196.69
2023-03-01T04:04:30.667Z,102193.97
2023-03-01T04:04:53.285Z,102197.53
2023-03-01T04:05:16.952Z,102183.34
2023-03-01T04:05:39.484Z,102188.72
2023-03-01T04:06:01.494Z,102193.97
2023-03-01T04:06:24.087Z,102190.44
2023-03-01T04:06:45.688Z,102166.50
2023-03-01T04:07:07.295Z,102177.06
2023-03-01T04:07:28.947Z,102189.47
2023-03-01T04:08:01.971Z,102188.59
2023-03-01T04:08:25.332Z,102191.22
2023-03-01T04:08:47.176Z,102186.84
2023-03-01T04:09:08.752Z,102186.00
2023-03-01T04:09:31.284Z,102182.50
2023-03-01T04:09:52.840Z,102188.59
2023-03-01T04:10:18.592Z,102191.22
2023-03-01T04:10:41.992Z,102186.91
2023-03-01T04:11:20.157Z,102181.59
2023-03-01T04:11:42.691Z,102184.28
2023-03-01T04:12:04.579Z,102182.50
2023-03-01T04:12:26.208Z,102175.38
2023-03-01T04:12:47.794Z,102186.84
2023-03-01T04:13:13.644Z,102181.63
2023-03-01T04:13:37.345Z,102190.41
2023-03-01T04:14:00.962Z,102182.50
2023-03-01T04:14:26.252Z,102186.84
2023-03-01T04:14:48.960Z,102183.38
2023-03-01T04:15:13.998Z,102179.81
2023-03-01T04:15:37.352Z,102179.81
2023-03-01T04:15:59.443Z,102178.13
2023-03-01T04:16:21.132Z,102169.28
2023-03-01T04:16:43.226Z,102178.13
2023-03-01T04:17:06.316Z,102176.34
2023-03-01T04:17:28.263Z,102180.75
2023-03-01T04:17:50.868Z,102182.50
2023-03-01T04:18:14.115Z,102170.97
2023-03-01T04:18:36.708Z,102169.94
2023-03-01T04:19:00.625Z,102173.63
2023-03-01T04:19:22.277Z,102180.66
2023-03-01T04:19:45.977Z,102179.78
2023-03-01T04:20:10.362Z,102183.34
2023-03-01T04:20:35.768Z,102186.84
2023-03-01T04:20:57.645Z,102179.78
2023-03-01T04:21:21.183Z,102178.94
2023-03-01T04:21:43.754Z,102176.25
2023-03-01T04:22:10.236Z,102180.75
2023-03-01T04:22:32.963Z,102187.75
2023-03-01T04:22:59.293Z,102178.88
2023-03-01T04:23:22.091Z,102177.19
2023-03-01T04:23:44.992Z,102180.75
2023-03-01T04:24:07.742Z,102177.19
2023-03-01T04:24:29.421Z,102177.22
2023-03-01T04:24:50.995Z,102180.75
2023-03-01T04:25:14.971Z,102181.59
2023-03-01T04:25:37.826Z,102185.16
2023-03-01T04:26:00.668Z,102183.47
2023-03-01T04:26:22.299Z,102184.31
2023-03-01T04:26:44.885Z,102183.47
2023-03-01T04:27:06.564Z,102185.19
2023-03-01T04:27:28.247Z,102180.03
2023-03-01T04:27:49.875Z,102183.53
2023-03-01T04:28:11.648Z,102183.53
2023-03-01T04:28:37.115Z,102179.16
2023-03-01T04:28:58.749Z,102179.16
2023-03-01T04:29:20.379Z,102173.81
2023-03-01T04:29:43.304Z,102179.09
2023-03-01T04:30:06.646Z,102186.94
2023-03-01T04:30:28.259Z,102183.47
2023-03-01T04:30:49.853Z,102181.69
2023-03-01T04:31:14.469Z,102179.13
2023-03-01T04:31:37.504Z,102187.81
2023-03-01T04:32:00.040Z,102172.06
2023-03-01T04:32:21.825Z,102177.31